Pagrindinis puslapis
METAR-TAF:

METAR-TAF

Oro uostai :

Vitebskas, Baltarusija

platuma: 55-10N, ilguma: 030-13E, Aukštis: 176 m

Dabartinis oras

Ataskaita buvo paskelbta 49 minutes, ne 12:00 UTC
Vėjas 14 kt iš Pietvakarių su gūsio iki 19 kt
Temperatūra 11°C
Drėgmė 47%
Slėgis 1012 hPa
Matomumas 10 km arba daugiau
Su prošvaistėmis ne aukštis 4100 ft, Liūtiniai kamuoliniai debesys.

METAR: UMII 201200Z 22007G10MPS 9999 BKN041CB 11/00 Q1012 TEMPO 2000 SHRA BKN005

Laikas: 15:49 (12:49 UTC)

Prognozė

Ataskaita buvo paskelbta 1 valandą ir 46 minutes, ne 11:03 UTC
Prognozė galioja nuo 20 metu 12 UTC su 20 metu 21 UTC
Vėjas 8 kt iš Pietų su gūsio iki 17 kt
Matomumas 10 km arba daugiau
Su prošvaistėmis ne aukštis 1500 ft
Laikinai
nuo 20 metu 12 UTC su 20 metu 21 UTC
Vėjas 12 kt iš Pietų/Pietvakarių su gūsio iki 21 kt
Matomumas: 2000 m
Su prošvaistėmis ne aukštis 500 ft
Su prošvaistėmis ne aukštis 1500 ft, Liūtiniai kamuoliniai debesys.
lietus, rūkana,

TAF: UMII 201103Z 2012/2021 19004G09MPS 9999 BKN015 TEMPO 2012/2021 21006G11MPS 2000 SHRA BR BKN005 BKN015CB

Orai ataskaitas ir orų prognozės (METAR, TAF).

turimą stotys yra geltonos ir raudonos taškus žemėlapyje.

Perkelti pele per norėdami pamatyti stoties vardą.

Tada spustelėkite, norėdami matyti oro stebėjimo ir prognozės.

Norėdami pakeisti žemėlapį: spustelėkite ant žalios mygtukų su juodo kryžiaus žemyn,; žalią mygtuką su brūkšneliu, jei norite nutolinti; arba žalių rodyklių gretimoms žemėlapius.


METAR-TAF: